Time,TemperatureF,DewpointF,PressureIn,WindDirection,WindDirectionDegrees,WindSpeedMPH,WindSpeedGustMPH,Humidity,HourlyPrecipIn,Conditions,Clouds,dailyrainin,SoftwareType,DateUTC
2013-07-26 00:00:00,62.7,62.2,29.96,SW,223,0.0,0.0,98,0.00,RA,,0.00,WeatherDisplay:10.37,2013-07-26 04:00:00,
2013-07-26 01:00:00,61.6,61.1,29.96,SW,223,0.0,0.0,98,0.00,CLR,,0.00,WeatherDisplay:10.37,2013-07-26 05:00:00,
2013-07-26 02:00:00,60.4,59.9,29.95,SW,223,0.0,0.0,98,0.00,CLR,,0.00,WeatherDisplay:10.37,2013-07-26 06:00:00,
2013-07-26 03:00:00,59.4,58.8,29.95,SW,223,0.0,3.0,98,0.00,CLR,,0.00,WeatherDisplay:10.37,2013-07-26 07:00:00,
2013-07-26 04:00:00,58.7,58.4,29.96,SW,223,0.0,0.0,99,0.00,CLR,,0.00,WeatherDisplay:10.37,2013-07-26 08:00:00,
2013-07-26 05:00:00,58.0,57.7,29.96,SW,223,0.0,0.0,99,0.00,CLR,,0.00,WeatherDisplay:10.37,2013-07-26 09:00:00,
2013-07-26 06:00:00,57.7,57.4,29.97,SW,223,0.0,1.0,99,0.00,SCT,,0.00,WeatherDisplay:10.37,2013-07-26 10:00:00,
2013-07-26 07:00:00,57.1,56.8,29.99,WNW,289,0.0,0.0,99,0.00,SCT,,0.00,WeatherDisplay:10.37,2013-07-26 11:00:00,
2013-07-26 08:00:00,60.3,60.0,30.01,SW,233,0.0,1.0,99,0.00,CLR,,0.00,WeatherDisplay:10.37,2013-07-26 12:00:00,
2013-07-26 09:00:00,66.2,65.0,30.01,SSW,206,0.0,2.0,96,0.00,CLR,,0.00,WeatherDisplay:10.37,2013-07-26 13:00:00,
2013-07-26 10:00:00,72.5,68.0,30.01,SW,223,1.0,4.0,86,0.00,BKN,,0.00,WeatherDisplay:10.37,2013-07-26 14:00:00,
2013-07-26 11:00:00,75.6,69.0,30.00,ENE,64,0.0,5.0,80,0.00,SCT,,0.00,WeatherDisplay:10.37,2013-07-26 15:00:00,
2013-07-26 12:00:00,79.5,68.8,29.99,East,92,3.0,6.0,70,0.00,SCT,,0.00,WeatherDisplay:10.37,2013-07-26 16:00:00,
2013-07-26 13:00:00,80.4,68.9,29.98,WSW,243,0.0,8.0,68,0.00,SCT,,0.00,WeatherDisplay:10.37,2013-07-26 17:00:00,
2013-07-26 14:00:00,80.2,69.9,29.95,SW,233,0.0,8.0,71,0.00,SCT,,0.00,WeatherDisplay:10.37,2013-07-26 18:00:00,
2013-07-26 15:00:00,78.1,68.7,29.96,SW,216,5.0,12.0,73,0.00,BKN,,0.00,WeatherDisplay:10.37,2013-07-26 19:00:00,
2013-07-26 16:00:00,75.2,67.9,29.95,North,5,0.0,3.0,78,0.00,OVC,,0.00,WeatherDisplay:10.37,2013-07-26 20:00:00,
2013-07-26 17:00:00,79.9,70.9,29.93,West,273,1.0,3.0,74,0.00,BKN,,0.00,WeatherDisplay:10.37,2013-07-26 21:00:00,
2013-07-26 18:00:00,76.0,70.4,29.93,ENE,63,0.0,5.0,83,0.00,BKN,,0.00,WeatherDisplay:10.37,2013-07-26 22:00:00,
2013-07-26 19:00:00,74.9,70.8,29.92,WNW,290,0.0,1.0,87,0.00,SCT,,0.00,WeatherDisplay:10.37,2013-07-26 23:00:00,
2013-07-26 20:00:00,69.5,68.0,29.95,SW,215,2.0,10.0,95,0.23,-RA,,0.23,WeatherDisplay:10.37,2013-07-27 00:00:00,
2013-07-26 21:00:00,68.9,68.0,29.97,SE,140,0.0,4.0,97,0.32,-RA,,0.55,WeatherDisplay:10.37,2013-07-27 01:00:00,
2013-07-26 22:00:00,68.5,68.0,29.97,SE,140,0.0,1.0,98,0.11,RA,,0.66,WeatherDisplay:10.37,2013-07-27 02:00:00,
2013-07-26 23:00:00,67.6,67.0,29.96,SE,140,0.0,1.0,98,0.01,BKN,,0.67,WeatherDisplay:10.37,2013-07-27 03:00:00,